Aérodrome :
LOGIN :

S'inscrire | Disclaimer

   EN    FR    IT 

 










Légende :    VFR   VFR Marginal   IFR   IFR Intensif   IFR Très Intensif
Visi : 
Plafond : 
>= 8 km
>= 3000ft
5 à 8 km
1000 à 3000 ft
1500m à 5 km
500 à 1000 ft
800 à 1500m
200 à 500 ft
< 800m
< 200 ft
Symboles :   Orages  Brouillard  Fortes neiges  Fortes précipitations  Vent > 20 kt
SIGMETs :   Divers  Orages  Givrage  Turbulence  Onde Orograph.  Cendres Volcan.







- Altitude de l'aérodrome : 294 ft
- Code IATA : NAP


LIRN - Naples Capodichino

DERNIER METAR :
  • 261820Z 03006KT 9999 FEW045 22/06 Q1015 NOSIG

METARs EXPIRÉS :
  • 261750Z 05006KT 290V090 9999 FEW045 22/06 Q1015 NOSIG
  • 261720Z 06007KT 040V100 9999 FEW045 23/07 Q1015 NOSIG
  • 261650Z 07007KT 9999 FEW045 23/07 Q1015 NOSIG
  • 261620Z 06010KT 040V100 9999 FEW045 24/07 Q1014 NOSIG
  • 261550Z 05011KT 9999 FEW045 24/07 Q1015 NOSIG

TAF TAF LIRN
Valide du 26 à 18h jusqu'au 27 à 18h UTC


261700Z 2618/2718 28010KT CAVOK
BECMG 2621/2623 VRB05KT
Pas de NOTAMs connus pour ce terrain.



MET'MAP, la Météo Aéronautique d'un coup d'oeil ! - Copyright ORBIFLY Décembre 2007 - Disclaimer

ORBIFLY MET'MAP TEAM :

Programmation & Développement : Alexandra Zaïnal
Conception & Développement : Baudouin d'Aumeries
Co-Programmation & Développement : Marc-Olivier Méhu
Soutien technique & logistique : Manuel Goepfert

Contact : metmap@orbifly.com




SOURCES & CREDITS :

   NOAA